Flight Track Log - Related Links

Times and Time Zones

All times are in EDT time to prevent confusion due to time zone crossing. See the USC105 flight status page for this flight to view local times or setup timezone preferences in your user account.

Time Position Orientation Groundspeed Altitude Reporting Facility
EDT Latitude Longitude Course Direction KTS MPH feet Rate Location/Type
Tue 06:46:04 AM 42.2192 -83.5561 238° Southwest 98 113 2,300  Level FAA TRACON SMA TRACON (SMA)
Tue 06:46:25 AM 42.2097 -83.5664 219° Southwest 130 150 2,700 1,024 Climbing FAA TRACON SMA TRACON (SMA)
Tue 06:46:45 AM 42.2028 -83.5742 220° Southwest 114 131 3,000 462 Climbing FAA TRACON SMA TRACON (SMA)
Tue 06:47:04 AM 42.1947 -83.5819 216° Southwest 136 157 3,000 150 Level FAA TRACON SMA TRACON (SMA)
Tue 06:47:25 AM 42.1819 -83.5950 217° Southwest 140 161 3,100  Climbing FAA TRACON SMA TRACON (SMA)
Tue 06:47:44 AM 42.1703 -83.6025 205° Southwest 165 190 3,000 -150 Descending FAA TRACON SMA TRACON (SMA)
Tue 06:48:05 AM 42.1569 -83.6011 176° South 169 194 3,000  Level FAA TRACON SMA TRACON (SMA)
Tue 06:48:25 AM 42.1406 -83.5953 165° South 158 182 3,000  Level FAA TRACON SMA TRACON (SMA)
Tue 06:48:44 AM 42.1278 -83.5914 167° South 156 180 3,000  Level FAA TRACON SMA TRACON (SMA)
Tue 06:49:05 AM 42.1158 -83.5872 165° South 157 181 3,000  Level FAA TRACON SMA TRACON (SMA)
Tue 06:49:24 AM 42.0975 -83.5814 167° South 166 191 3,000  Level FAA TRACON SMA TRACON (SMA)
Tue 06:49:45 AM 42.0836 -83.5767 166° South 167 192 3,000 146 Level FAA TRACON SMA TRACON (SMA)
Tue 06:50:05 AM 42.0703 -83.5731 169° South 169 194 3,100 615 Climbing FAA TRACON SMA TRACON (SMA)
Tue 06:50:24 AM 42.0525 -83.5669 166° South 164 189 3,400 750 Climbing FAA TRACON SMA TRACON (SMA)
Tue 06:50:45 AM 42.0367 -83.5619 167° South 163 188 3,600 450 Climbing FAA TRACON SMA TRACON (SMA)
Tue 06:51:04 AM 42.0239 -83.5581 167° South 165 190 3,700 300 Climbing FAA TRACON SMA TRACON (SMA)
Tue 06:51:25 AM 42.0083 -83.5542 169° South 167 192 3,800 293 Climbing FAA TRACON SMA TRACON (SMA)
Tue 06:51:45 AM 41.9939 -83.5489 165° South 167 192 3,900 450 Climbing FAA TRACON SMA TRACON (SMA)
Tue 06:52:05 AM 41.9769 -83.5439 168° South 168 193 4,100 450 Climbing FAA TRACON SMA TRACON (SMA)
Tue 06:52:25 AM 41.9608 -83.5392 168° South 168 193 4,200 462 Climbing FAA TRACON SMA TRACON (SMA)
Tue 06:52:44 AM 41.9469 -83.5347 167° South 169 194 4,400 419 Climbing FAA TRACON SMA TRACON (SMA)
Tue 06:53:08 AM 41.9303 -83.5297 167° South 169 194 4,500 409 Climbing FAA TRACON SMA TRACON (SMA)
Tue 06:53:28 AM 41.9128 -83.5247 168° South 168 193 4,700 486 Climbing FAA TRACON SMA TRACON (SMA)
Tue 06:53:45 AM 41.8994 -83.5211 169° South 170 196 4,800 333 Climbing FAA TRACON SMA TRACON (SMA)
Tue 06:54:04 AM 41.8861 -83.5175 169° South 171 197 4,900 450 Climbing FAA TRACON SMA TRACON (SMA)
Tue 06:54:25 AM 41.8694 -83.5122 167° South 172 198 5,100 450 Climbing FAA TRACON SMA TRACON (SMA)
Tue 06:54:44 AM 41.8556 -83.5089 170° South 172 198 5,200 450 Climbing FAA TRACON SMA TRACON (SMA)
Tue 06:55:05 AM 41.8367 -83.5036 168° South 174 200 5,400 439 Climbing FAA TRACON SMA TRACON (SMA)
Tue 06:55:25 AM 41.8222 -83.4992 167° South 174 200 5,500 308 Climbing FAA TRACON SMA TRACON (SMA)
Tue 06:55:44 AM 41.8075 -83.4953 169° South 173 199 5,600 300 Climbing FAA TRACON SMA TRACON (SMA)
Tue 06:56:05 AM 41.7892 -83.4903 169° South 175 201 5,700 300 Climbing FAA TRACON SMA TRACON (SMA)
Tue 06:56:24 AM 41.7742 -83.4864 169° South 175 201 5,800 450 Climbing FAA TRACON SMA TRACON (SMA)
Tue 06:56:45 AM 41.7592 -83.4825 169° South 176 203 6,000 439 Climbing FAA TRACON SMA TRACON (SMA)
Tue 06:57:05 AM 41.7403 -83.4772 168° South 179 206 6,100 300 Climbing FAA TRACON SMA TRACON (SMA)
Tue 06:57:25 AM 41.7253 -83.4736 170° South 179 206 6,200 300 Climbing FAA TRACON SMA TRACON (SMA)
Tue 06:57:45 AM 41.7097 -83.4697 169° South 180 207 6,300 462 Climbing FAA TRACON SMA TRACON (SMA)
Tue 06:58:04 AM 41.6903 -83.4642 168° South 183 211 6,500 450 Climbing FAA TRACON SMA TRACON (SMA)
Tue 06:58:25 AM 41.6747 -83.4600 169° South 184 212 6,600 293 Climbing FAA TRACON SMA TRACON (SMA)
Tue 06:58:45 AM 41.6592 -83.4558 169° South 185 213 6,700 600 Climbing FAA TRACON SMA TRACON (SMA)
Tue 06:59:05 AM 41.6397 -83.4503 168° South 186 214 7,000 450 Climbing FAA TRACON SMA TRACON (SMA)
Tue 06:59:25 AM 41.6242 -83.4453 166° South 185 213 7,000  Level FAA TRACON SMA TRACON (SMA)
Tue 06:59:44 AM 41.6086 -83.4414 169° South 185 213 7,000  Level FAA TRACON SMA TRACON (SMA)
Tue 07:00:05 AM 41.5886 -83.4364 169° South 188 216 7,000  Level FAA TRACON SMA TRACON (SMA)
Tue 07:00:25 AM 41.5725 -83.4322 169° South 189 217 7,000  Level FAA TRACON SMA TRACON (SMA)
Tue 07:00:45 AM 41.5564 -83.4275 168° South 191 220 7,000  Level FAA TRACON SMA TRACON (SMA)
Tue 07:01:05 AM 41.5364 -83.4219 168° South 191 220 7,000  Level FAA TRACON SMA TRACON (SMA)
Tue 07:01:24 AM 41.5208 -83.4169 166° South 189 217 7,000  Level FAA TRACON SMA TRACON (SMA)
Tue 07:01:45 AM 41.5056 -83.4128 168° South 185 213 7,000  Level FAA TRACON SMA TRACON (SMA)
Tue 07:02:05 AM 41.4864 -83.4072 168° South 184 212 7,000  Level FAA TRACON SMA TRACON (SMA)
Tue 07:02:24 AM 41.4708 -83.4036 170° South 184 212 7,000  Level FAA TRACON SMA TRACON (SMA)
Tue 07:02:45 AM 41.4556 -83.3992 168° South 184 212 7,000  Level FAA TRACON SMA TRACON (SMA)
Tue 07:03:05 AM 41.4361 -83.3933 167° South 184 212 7,000  Level FAA TRACON SMA TRACON (SMA)
Tue 07:03:25 AM 41.4206 -83.3892 169° South 184 212 7,000  Level FAA TRACON SMA TRACON (SMA)
Tue 07:03:45 AM 41.4050 -83.3844 167° South 185 213 7,000  Level FAA TRACON SMA TRACON (SMA)
Tue 07:04:04 AM 41.3856 -83.3789 168° South 185 213 7,000  Level FAA TRACON SMA TRACON (SMA)
Tue 07:04:25 AM 41.3700 -83.3747 169° South 185 213 7,000  Level FAA TRACON SMA TRACON (SMA)
Tue 07:04:45 AM 41.3544 -83.3714 171° South 185 213 7,000  Level FAA TRACON SMA TRACON (SMA)
Tue 07:05:05 AM 41.3350 -83.3669 170° South 185 213 7,000  Level FAA TRACON SMA TRACON (SMA)
Tue 07:05:45 AM 41.3350 -83.3669 270° West 185 213 7,000 -11 Level FAA TRACON SMA TRACON (SMA)
Tue 07:07:00 AM 41.2773 -83.3467 165° South  Level FlightAware Approximate
Tue 07:13:51 AM 40.8936 -83.2336 167° South 187 215 6,900  Level Indianapolis Center
Tue 07:14:00 AM 40.9534 -83.2362 167° South  Level FlightAware Approximate
Tue 07:14:52 AM 40.8428 -83.2197 168° South 185 213 6,900  Level Indianapolis Center
Tue 07:15:00 AM 40.9068 -83.2224 167° South  Level FlightAware Approximate
Tue 07:15:53 AM 40.7917 -83.2047 167° South 187 215 6,900  Level Indianapolis Center
Tue 07:16:00 AM 40.8602 -83.2086 167° South  Level FlightAware Approximate
Tue 07:16:54 AM 40.7458 -83.1914 168° South 185 213 6,900  Level Indianapolis Center
Tue 07:17:00 AM 40.8136 -83.1948 167° South  Level FlightAware Approximate
Tue 07:17:55 AM 40.6939 -83.1769 168° South 187 215 6,900  Level Indianapolis Center
Tue 07:18:00 AM 40.7669 -83.1811 167° South  Level FlightAware Approximate
Tue 07:18:56 AM 40.6428 -83.1617 167° South 187 215 6,900  Level Indianapolis Center
Tue 07:19:00 AM 40.7203 -83.1674 167° South  Level FlightAware Approximate
Tue 07:19:58 AM 40.5878 -83.1458 168° South 186 214 7,000  Level Indianapolis Center
Tue 07:20:59 AM 40.5361 -83.1311 168° South 188 216 7,000  Level Indianapolis Center
Tue 07:22:00 AM 40.4800 -83.1161 169° South 188 216 7,000  Level Indianapolis Center
Tue 07:22:40 AM 40.4433 -83.1086 171° South 190 219 7,000  Level Indianapolis Center
Tue 07:23:02 AM 40.4281 -83.1006 158° South 188 216 7,000 -393 Level Indianapolis Center
Tue 07:23:41 AM 40.3919 -83.0917 169° South 191 220 6,600 -590 Descending Indianapolis Center
Tue 07:24:03 AM 40.3739 -83.0856 166° South 193 222 6,400 -492 Descending Indianapolis Center
Tue 07:24:42 AM 40.3367 -83.0769 170° South 199 229 6,100 -295 Descending Indianapolis Center
Tue 07:25:04 AM 40.3192 -83.0703 164° South 198 228 6,100 -400 Level Indianapolis Center
Tue 07:25:42 AM 40.2853 -83.0628 170° South 194 223 5,700 -484 Descending Indianapolis Center
Tue 07:26:06 AM 40.2661 -83.0539 161° South 195 224 5,600 -393 Descending Indianapolis Center
Tue 07:26:43 AM 40.2319 -83.0456 169° South 194 223 5,300 -393 Descending Indianapolis Center
Tue 07:27:07 AM 40.2133 -83.0403 168° South 192 221 5,200 -327 Descending Indianapolis Center
Tue 07:27:38 AM 40.1869 -83.0322 167° South 184 212 5,000 -393 Descending Indianapolis Center
Tue 07:28:08 AM 40.1633 -83.0258 168° South 184 212 4,800 -444 Descending Indianapolis Center
Tue 07:28:32 AM 40.1414 -83.0214 171° South 179 206 4,600 -484 Descending Indianapolis Center
Tue 07:29:10 AM 40.1139 -83.0111 164° South 182 209 4,300 -492 Descending Indianapolis Center
Tue 07:29:33 AM 40.0922 -83.0075 173° South 176 203 4,100 -393 Descending Indianapolis Center
Tue 07:30:11 AM 40.0658 -82.9972 163° South 178 205 3,900 -179 Descending Indianapolis Center
Tue 07:30:40 AM 40.0411 -82.9908 169° South 165 190 3,900  Level Indianapolis Center
Tue 07:31:13 AM 40.0206 -82.9853 168° South 172 198 3,900  Level Indianapolis Center
Tue 07:31:46 AM 39.9917 -82.9797 172° South 160 184 3,900 -197 Level Indianapolis Center
Tue 07:32:14 AM 39.9761 -82.9728 161° South 165 190 3,700 -537 Descending Indianapolis Center
Tue 07:32:53 AM 39.9428 -82.9578 161° South 172 198 3,300 -387 Descending Indianapolis Center
Tue 07:33:16 AM 39.9317 -82.9525 160° South 165 190 3,300 -436 Level Indianapolis Center
Tue 07:33:48 AM 39.9000 -82.9392 162° South 173 199 2,900 -689 Descending Indianapolis Center
Tue 07:34:17 AM 39.8856 -82.9303 155° Southeast 170 196 2,600 -636 Descending Indianapolis Center
Tue 07:34:54 AM 39.8539 -82.9094 153° Southeast 170 196 2,200 -581 Descending Indianapolis Center
Tue 07:35:19 AM 39.8444 -82.9011 146° Southeast 167 192 2,000 -907 Descending Indianapolis Center
Tue 07:36:20 AM 39.8208 -82.9206 212° Southwest 137 158 900 -1,082 Descending Indianapolis Center

Login

Don't have an account? Register now (free) for customized features, flight alerts, and more!